createdAt,value
2018-08-19T00:00:18.221Z,7.90
2018-08-19T00:02:45.512Z,7.47
2018-08-19T00:05:15.941Z,7.33
2018-08-19T00:07:43.436Z,8.00
2018-08-19T00:10:10.816Z,8.17
2018-08-19T00:12:39.822Z,7.43
2018-08-19T00:15:07.206Z,9.20
2018-08-19T00:17:34.635Z,11.53
2018-08-19T00:20:01.973Z,11.63
2018-08-19T00:22:29.294Z,12.80
2018-08-19T00:24:56.667Z,12.20
2018-08-19T00:27:24.117Z,12.63
2018-08-19T00:29:51.430Z,10.40
2018-08-19T00:32:18.740Z,9.47
2018-08-19T00:34:46.588Z,9.90
2018-08-19T00:37:13.896Z,10.70
2018-08-19T00:39:41.182Z,9.90
2018-08-19T00:42:08.508Z,9.17
2018-08-19T00:44:35.841Z,9.30
2018-08-19T00:47:03.210Z,9.50
2018-08-19T00:49:30.620Z,8.80
2018-08-19T00:52:02.723Z,8.90
2018-08-19T00:54:31.293Z,8.13
2018-08-19T00:56:59.612Z,8.53
2018-08-19T00:59:28.389Z,9.03
2018-08-19T01:01:55.797Z,7.20
2018-08-19T01:04:23.159Z,8.90
2018-08-19T01:06:52.272Z,7.73
2018-08-19T01:09:21.108Z,7.80
2018-08-19T01:11:48.440Z,7.97
2018-08-19T01:14:15.769Z,8.03
2018-08-19T01:16:43.166Z,9.20
2018-08-19T01:19:10.933Z,7.97
2018-08-19T01:21:38.318Z,8.50
2018-08-19T01:24:07.321Z,8.67
2018-08-19T01:26:35.880Z,8.40
2018-08-19T01:29:03.821Z,7.70
2018-08-19T01:31:31.156Z,8.00
2018-08-19T01:33:58.605Z,8.73
2018-08-19T01:36:25.982Z,8.50
2018-08-19T01:38:53.269Z,8.53
2018-08-19T01:41:20.598Z,8.17
2018-08-19T01:43:54.750Z,8.10
2018-08-19T01:46:22.066Z,8.80
2018-08-19T01:48:49.369Z,7.63
2018-08-19T01:51:16.753Z,7.97
2018-08-19T01:53:44.061Z,7.97
2018-08-19T01:56:11.544Z,8.50
2018-08-19T01:58:43.218Z,7.97
2018-08-19T02:01:10.541Z,8.30
2018-08-19T02:03:37.885Z,8.33
2018-08-19T02:06:05.321Z,7.67
2018-08-19T02:08:32.614Z,8.70
2018-08-19T02:11:00.018Z,9.00
2018-08-19T02:13:27.335Z,8.20
2018-08-19T02:15:54.704Z,8.27
2018-08-19T02:18:22.090Z,8.00
2018-08-19T02:20:49.506Z,8.17
2018-08-19T02:23:16.757Z,8.20
2018-08-19T02:25:45.282Z,11.77
2018-08-19T02:28:13.199Z,8.00
2018-08-19T02:30:49.360Z,9.40
2018-08-19T02:33:16.696Z,10.40
2018-08-19T02:35:44.471Z,9.37
2018-08-19T02:38:11.819Z,9.80
2018-08-19T02:40:39.155Z,9.83
2018-08-19T02:43:08.385Z,9.40
2018-08-19T02:45:35.701Z,9.97
2018-08-19T02:48:03.014Z,9.40
2018-08-19T02:50:30.388Z,9.33
2018-08-19T02:52:57.682Z,9.00
2018-08-19T02:55:25.018Z,9.13
2018-08-19T02:57:56.633Z,8.80
2018-08-19T03:00:24.024Z,8.23
2018-08-19T03:02:51.341Z,9.40
2018-08-19T03:05:18.633Z,9.03
2018-08-19T03:07:45.934Z,8.83
2018-08-19T03:10:15.312Z,7.93
2018-08-19T03:12:43.106Z,8.10
2018-08-19T03:15:11.163Z,8.30
2018-08-19T03:17:38.551Z,8.90
2018-08-19T03:20:07.080Z,9.53
2018-08-19T03:22:34.406Z,9.30
2018-08-19T03:25:02.434Z,8.60
2018-08-19T03:27:29.863Z,8.70
2018-08-19T03:29:59.282Z,8.30
2018-08-19T03:32:26.712Z,8.73
2018-08-19T03:35:01.790Z,7.73
2018-08-19T03:37:29.107Z,8.53
2018-08-19T03:39:56.383Z,9.00
2018-08-19T03:42:23.676Z,8.33
2018-08-19T03:44:51.653Z,8.20
2018-08-19T03:47:20.986Z,8.37
2018-08-19T03:49:49.266Z,8.60
2018-08-19T03:52:16.922Z,8.50
2018-08-19T03:54:45.496Z,8.57
2018-08-19T03:57:13.537Z,8.23
2018-08-19T03:59:42.314Z,7.57
2018-08-19T04:02:09.689Z,9.10
2018-08-19T04:04:36.978Z,8.60
2018-08-19T04:07:04.444Z,8.97
2018-08-19T04:09:32.006Z,9.27
2018-08-19T04:12:04.828Z,8.60
2018-08-19T04:14:32.135Z,7.93
2018-08-19T04:17:00.694Z,8.13
2018-08-19T04:19:28.914Z,7.07
2018-08-19T04:21:58.409Z,7.63
2018-08-19T04:24:25.923Z,7.67
2018-08-19T04:26:53.315Z,7.40
2018-08-19T04:29:26.571Z,8.00
2018-08-19T04:31:54.340Z,8.40
2018-08-19T04:34:21.606Z,7.40
2018-08-19T04:36:49.125Z,7.23
2018-08-19T04:39:16.451Z,7.70
2018-08-19T04:41:43.747Z,7.40
2018-08-19T04:44:11.243Z,8.00
2018-08-19T04:46:38.555Z,7.40
2018-08-19T04:49:05.876Z,8.13
2018-08-19T04:51:33.180Z,8.00
2018-08-19T04:54:01.691Z,6.83
2018-08-19T04:56:29.156Z,6.80
2018-08-19T04:58:56.494Z,6.73
2018-08-19T05:01:23.826Z,7.63
2018-08-19T05:03:51.121Z,7.20
2018-08-19T05:06:18.406Z,7.90
2018-08-19T05:08:45.710Z,7.53
2018-08-19T05:11:13.045Z,6.67
2018-08-19T05:13:40.368Z,7.17
2018-08-19T05:16:07.696Z,6.70
2018-08-19T05:18:35.009Z,7.57
2018-08-19T05:21:08.751Z,6.10
2018-08-19T05:23:36.051Z,7.60
2018-08-19T05:26:03.854Z,6.20
2018-08-19T05:28:31.259Z,5.40
2018-08-19T05:30:58.702Z,5.73
2018-08-19T05:33:26.000Z,5.73
2018-08-19T05:35:53.322Z,6.53
2018-08-19T05:38:20.657Z,5.80
2018-08-19T05:40:53.446Z,5.73
2018-08-19T05:43:20.902Z,5.60
2018-08-19T05:45:54.021Z,5.70
2018-08-19T05:48:21.360Z,6.10
2018-08-19T05:50:48.683Z,5.43
2018-08-19T05:53:16.053Z,6.47
2018-08-19T05:55:43.681Z,5.43
2018-08-19T05:58:11.562Z,5.50
2018-08-19T06:00:47.982Z,5.67
2018-08-19T06:03:15.278Z,5.87
2018-08-19T06:05:42.602Z,6.70
2018-08-19T06:08:11.924Z,6.33
2018-08-19T06:10:39.397Z,6.00
2018-08-19T06:13:07.280Z,6.97
2018-08-19T06:15:34.590Z,6.67
2018-08-19T06:18:01.914Z,7.00
2018-08-19T06:20:30.308Z,8.83
2018-08-19T06:22:57.709Z,7.83
2018-08-19T06:25:25.074Z,6.33
2018-08-19T06:27:54.461Z,7.13
2018-08-19T06:30:21.838Z,7.10
2018-08-19T06:32:49.194Z,7.00
2018-08-19T06:35:16.636Z,7.03
2018-08-19T06:37:44.082Z,7.40
2018-08-19T06:40:12.113Z,6.00
2018-08-19T06:42:39.529Z,6.57
2018-08-19T06:45:07.233Z,4.73
2018-08-19T06:47:34.606Z,5.27
2018-08-19T06:50:03.343Z,5.97
2018-08-19T06:52:30.721Z,8.40
2018-08-19T06:54:58.155Z,6.40
2018-08-19T06:57:27.880Z,7.30
2018-08-19T06:59:55.273Z,5.57
2018-08-19T07:02:23.017Z,4.33
2018-08-19T07:04:50.521Z,4.97
2018-08-19T07:07:18.915Z,4.23
2018-08-19T07:09:46.251Z,5.00
2018-08-19T07:12:13.679Z,5.50
2018-08-19T07:14:41.252Z,5.00
2018-08-19T07:17:08.600Z,5.50
2018-08-19T07:19:36.488Z,4.30
2018-08-19T07:22:05.101Z,5.70
2018-08-19T07:24:32.889Z,5.37
2018-08-19T07:27:00.224Z,8.37
2018-08-19T07:29:29.096Z,5.37
2018-08-19T07:31:57.410Z,5.13
2018-08-19T07:34:25.089Z,7.77
2018-08-19T07:36:53.126Z,7.03
2018-08-19T07:39:20.484Z,5.07
2018-08-19T07:41:48.046Z,6.57
2018-08-19T07:44:15.402Z,4.50
2018-08-19T07:46:42.721Z,4.53
2018-08-19T07:49:10.116Z,6.13
2018-08-19T07:51:38.086Z,7.07
2018-08-19T07:54:05.352Z,5.47
2018-08-19T07:56:33.094Z,4.60
2018-08-19T07:59:08.233Z,5.13
2018-08-19T08:01:36.813Z,4.73
2018-08-19T08:04:04.737Z,4.80
2018-08-19T08:06:33.243Z,4.87
2018-08-19T08:09:01.922Z,4.60
2018-08-19T08:11:29.712Z,5.00
2018-08-19T08:13:57.093Z,6.13
2018-08-19T08:16:24.546Z,5.10
2018-08-19T08:18:51.981Z,5.40
2018-08-19T08:21:19.491Z,5.30
2018-08-19T08:23:46.814Z,5.63
2018-08-19T08:26:14.398Z,5.33
2018-08-19T08:28:45.128Z,5.00
2018-08-19T08:31:12.703Z,4.77
2018-08-19T08:33:40.759Z,5.27
2018-08-19T08:36:08.700Z,4.87
2018-08-19T08:38:36.357Z,4.30
2018-08-19T08:41:03.792Z,4.03
2018-08-19T08:43:31.217Z,4.80
2018-08-19T08:45:58.695Z,6.97
2018-08-19T08:48:26.449Z,4.73
2018-08-19T08:50:53.802Z,4.53
2018-08-19T08:53:21.343Z,5.07
2018-08-19T08:55:48.863Z,6.33
2018-08-19T08:58:16.307Z,5.70
2018-08-19T09:00:43.752Z,4.10
2018-08-19T09:03:11.142Z,4.53
2018-08-19T09:05:38.561Z,5.10
2018-08-19T09:08:05.980Z,3.73
2018-08-19T09:10:33.337Z,3.73
2018-08-19T09:13:00.729Z,5.33
2018-08-19T09:15:28.166Z,6.23
2018-08-19T09:17:55.557Z,4.37
2018-08-19T09:20:23.364Z,5.37
2018-08-19T09:22:50.968Z,5.03
2018-08-19T09:25:18.445Z,3.83
2018-08-19T09:27:45.919Z,5.70
2018-08-19T09:30:33.138Z,4.23
2018-08-19T09:33:01.529Z,5.60
2018-08-19T09:35:31.028Z,5.67
2018-08-19T09:38:02.878Z,3.57
2018-08-19T09:40:30.294Z,6.63
2018-08-19T09:42:57.621Z,5.17
2018-08-19T09:45:25.351Z,4.30
2018-08-19T09:47:52.868Z,4.37
2018-08-19T09:50:20.013Z,4.37
2018-08-19T09:52:47.344Z,4.77
2018-08-19T09:55:14.944Z,3.30
2018-08-19T09:57:47.660Z,4.10
2018-08-19T10:00:15.165Z,3.87
2018-08-19T10:02:48.181Z,6.93
2018-08-19T10:05:31.117Z,9.30
2018-08-19T10:07:58.658Z,4.30
2018-08-19T10:10:26.045Z,3.67
2018-08-19T10:12:53.775Z,5.50
2018-08-19T10:15:21.145Z,3.60
2018-08-19T10:17:48.622Z,3.73
2018-08-19T10:20:16.030Z,3.53
2018-08-19T10:22:43.648Z,3.60
2018-08-19T10:25:16.453Z,3.47
2018-08-19T10:27:44.993Z,2.83
2018-08-19T10:30:12.365Z,3.87
2018-08-19T10:32:39.741Z,3.77
2018-08-19T10:35:12.662Z,4.83
2018-08-19T10:37:40.053Z,3.00
2018-08-19T10:40:07.529Z,3.23
2018-08-19T10:42:34.898Z,4.00
2018-08-19T10:45:08.289Z,4.20
2018-08-19T10:47:35.856Z,3.20
2018-08-19T10:50:07.964Z,3.40
2018-08-19T10:52:37.613Z,3.93
2018-08-19T10:55:05.102Z,5.03
2018-08-19T10:57:32.488Z,3.50
2018-08-19T11:00:00.002Z,5.53
2018-08-19T11:02:27.431Z,2.23
2018-08-19T11:04:55.489Z,3.10
2018-08-19T11:07:22.856Z,2.93
2018-08-19T11:09:56.244Z,2.67
2018-08-19T11:12:23.714Z,2.80
2018-08-19T11:14:51.181Z,2.30
2018-08-19T11:17:18.647Z,2.80
2018-08-19T11:19:48.733Z,2.53
2018-08-19T11:22:16.684Z,2.47
2018-08-19T11:24:44.737Z,2.80
2018-08-19T11:27:12.261Z,2.40
2018-08-19T11:29:40.965Z,3.37
2018-08-19T11:32:08.587Z,2.53
2018-08-19T11:34:36.070Z,2.13
2018-08-19T11:37:03.785Z,2.97
2018-08-19T11:39:36.615Z,3.63
2018-08-19T11:42:04.079Z,2.30
2018-08-19T11:44:33.768Z,2.70
2018-08-19T11:47:01.158Z,3.00
2018-08-19T11:49:28.493Z,2.50
2018-08-19T11:52:01.288Z,3.20
2018-08-19T11:54:29.521Z,3.50
2018-08-19T11:57:03.060Z,3.13
2018-08-19T11:59:36.031Z,2.90
2018-08-19T12:02:03.730Z,2.90
2018-08-19T12:04:31.072Z,4.10
2018-08-19T12:06:58.408Z,3.60
2018-08-19T12:09:26.617Z,3.63
2018-08-19T12:11:54.159Z,3.67
2018-08-19T12:14:21.414Z,3.30
2018-08-19T12:16:56.272Z,3.57
2018-08-19T12:19:26.919Z,3.60
2018-08-19T12:21:58.382Z,3.13
2018-08-19T12:24:29.419Z,3.20
2018-08-19T12:26:59.226Z,4.70
2018-08-19T12:29:27.964Z,3.50
2018-08-19T12:32:01.213Z,4.20
2018-08-19T15:34:07.140Z,7.93
2018-08-19T15:55:32.392Z,3.27
2018-08-19T15:58:01.820Z,4.03
2018-08-19T16:03:20.759Z,3.80
2018-08-19T16:05:48.164Z,3.90
2018-08-19T16:08:15.649Z,4.13
2018-08-19T16:10:43.035Z,4.13
2018-08-19T16:13:11.348Z,3.50
2018-08-19T16:15:38.847Z,3.30
2018-08-19T16:18:06.395Z,5.53
2018-08-19T16:20:33.905Z,3.40
2018-08-19T16:25:50.197Z,3.67
2018-08-19T16:28:17.705Z,3.40
2018-08-19T16:30:45.135Z,4.13
2018-08-19T16:38:41.350Z,4.13
2018-08-19T16:41:08.843Z,3.23
2018-08-19T16:43:36.260Z,3.57
2018-08-19T16:46:03.999Z,4.70
2018-08-19T16:51:28.873Z,3.10
2018-08-19T16:53:56.887Z,3.80
2018-08-19T16:56:24.247Z,3.33
2018-08-19T16:58:51.673Z,3.70
2018-08-19T17:01:19.903Z,3.10
2018-08-19T17:03:47.290Z,6.70
2018-08-19T17:11:43.489Z,3.33
2018-08-19T17:36:04.524Z,2.70
2018-08-19T17:41:18.498Z,4.63
2018-08-19T17:54:44.341Z,4.40
2018-08-19T18:05:24.144Z,2.83
2018-08-19T18:24:16.894Z,3.27
2018-08-19T18:26:44.535Z,3.00
2018-08-19T18:29:12.756Z,3.70
2018-08-19T18:31:41.374Z,3.73
2018-08-19T18:34:09.916Z,3.40
2018-08-19T18:36:37.329Z,2.87
2018-08-19T18:39:10.017Z,3.60
2018-08-19T18:41:39.787Z,4.13
2018-08-19T18:44:08.948Z,6.23
2018-08-19T18:46:36.975Z,5.40
2018-08-19T18:49:19.609Z,4.40
2018-08-19T18:51:48.682Z,4.73
2018-08-19T18:54:36.522Z,5.17
2018-08-19T18:57:06.529Z,4.63
2018-08-19T18:59:34.035Z,4.17
2018-08-19T19:02:03.403Z,3.90
2018-08-19T19:04:31.011Z,4.20
2018-08-19T19:06:59.070Z,4.13
2018-08-19T19:09:30.955Z,3.60
2018-08-19T19:11:58.780Z,3.87
2018-08-19T19:14:26.240Z,4.53
2018-08-19T19:16:54.625Z,3.63
2018-08-19T19:19:22.120Z,3.70
2018-08-19T19:22:04.302Z,4.10
2018-08-19T19:24:36.035Z,3.30
2018-08-19T19:27:03.453Z,3.70
2018-08-19T19:29:31.209Z,4.70
2018-08-19T19:32:00.280Z,4.40
2018-08-19T19:34:33.074Z,4.73
2018-08-19T19:37:01.855Z,4.53
2018-08-19T19:39:29.485Z,4.60
2018-08-19T19:42:02.241Z,4.83
2018-08-19T19:44:33.679Z,4.77
2018-08-19T19:47:01.241Z,4.70
2018-08-19T19:49:29.078Z,6.50
2018-08-19T19:52:03.585Z,4.63
2018-08-19T19:54:32.332Z,4.03
2018-08-19T19:57:00.384Z,4.20
2018-08-19T19:59:30.199Z,5.00
2018-08-19T20:01:58.739Z,4.07
2018-08-19T20:04:26.236Z,4.77
2018-08-19T20:06:53.740Z,4.70
2018-08-19T20:09:21.152Z,5.03
2018-08-19T20:11:48.573Z,5.37
2018-08-19T20:14:15.990Z,7.00
2018-08-19T20:16:43.547Z,5.80
2018-08-19T20:19:11.054Z,4.60
2018-08-19T20:21:38.697Z,4.47
2018-08-19T20:24:06.545Z,4.93
2018-08-19T20:26:34.084Z,4.40
2018-08-19T20:29:02.925Z,4.30
2018-08-19T20:31:30.387Z,5.00
2018-08-19T20:33:58.001Z,4.60
2018-08-19T20:36:25.667Z,4.83
2018-08-19T20:38:53.236Z,5.77
2018-08-19T20:41:20.774Z,5.53
2018-08-19T20:43:48.513Z,5.00
2018-08-19T20:46:16.740Z,5.37
2018-08-19T20:48:45.822Z,4.77
2018-08-19T20:51:13.607Z,4.60
2018-08-19T20:53:41.188Z,4.97
2018-08-19T20:56:08.623Z,4.80
2018-08-19T20:58:36.191Z,4.13
2018-08-19T21:01:04.411Z,4.93
2018-08-19T21:03:31.993Z,4.50
2018-08-19T21:05:59.681Z,4.40
2018-08-19T21:08:27.607Z,4.60
2018-08-19T21:10:55.348Z,4.43
2018-08-19T21:13:23.071Z,4.90
2018-08-19T21:15:53.394Z,4.37
2018-08-19T21:18:21.103Z,5.00
2018-08-19T21:20:48.539Z,4.33
2018-08-19T21:23:15.968Z,4.47
2018-08-19T21:25:50.385Z,7.10
2018-08-19T21:28:18.506Z,4.60
2018-08-19T21:30:46.149Z,4.67
2018-08-19T21:33:13.606Z,4.30
2018-08-19T21:35:46.440Z,4.70
2018-08-19T21:38:14.225Z,4.13
2018-08-19T21:40:42.187Z,4.60
2018-08-19T21:43:10.703Z,4.80
2018-08-19T21:45:38.516Z,4.33
2018-08-19T21:48:09.540Z,4.63
2018-08-19T21:50:37.068Z,4.70
2018-08-19T21:53:06.805Z,4.13
2018-08-19T21:55:43.232Z,4.47
2018-08-19T21:58:10.774Z,4.60
2018-08-19T22:00:40.087Z,4.30
2018-08-19T22:03:15.160Z,4.50
2018-08-19T22:05:42.611Z,4.00
2018-08-19T22:08:10.482Z,4.50
2018-08-19T22:10:38.046Z,5.27
2018-08-19T22:13:05.731Z,4.23
2018-08-19T22:15:38.347Z,4.20
2018-08-19T22:18:06.463Z,4.20
2018-08-19T22:20:34.562Z,4.60
2018-08-19T22:23:01.995Z,4.63
2018-08-19T22:25:29.381Z,4.57
2018-08-19T22:27:56.700Z,4.23
2018-08-19T22:30:24.763Z,4.90
2018-08-19T22:32:52.109Z,4.23
2018-08-19T22:35:19.660Z,5.30
2018-08-19T22:37:47.181Z,4.37
2018-08-19T22:40:15.591Z,5.20
2018-08-19T22:42:43.092Z,4.73
2018-08-19T22:45:10.652Z,4.40
2018-08-19T22:47:38.054Z,5.20
2018-08-19T22:50:05.476Z,4.93
2018-08-19T22:52:32.858Z,5.03
2018-08-19T22:55:00.340Z,4.40
2018-08-19T22:57:28.590Z,4.60
2018-08-19T22:59:55.979Z,4.37
2018-08-19T23:02:23.863Z,5.37
2018-08-19T23:04:51.367Z,5.33
2018-08-19T23:07:18.766Z,3.80
2018-08-19T23:09:46.341Z,4.23
2018-08-19T23:12:13.801Z,4.93
2018-08-19T23:14:46.640Z,6.00
2018-08-19T23:17:14.014Z,4.53
2018-08-19T23:19:41.359Z,4.73
2018-08-19T23:22:08.912Z,4.10
2018-08-19T23:24:36.282Z,4.27
2018-08-19T23:27:03.693Z,4.97
2018-08-19T23:29:31.090Z,4.33
2018-08-19T23:31:58.550Z,4.70
2018-08-19T23:34:26.225Z,4.87
2018-08-19T23:36:53.589Z,4.97
2018-08-19T23:39:20.966Z,4.80
2018-08-19T23:41:48.351Z,4.63
2018-08-19T23:44:15.737Z,5.70
2018-08-19T23:46:43.176Z,5.20
2018-08-19T23:49:10.756Z,5.63
2018-08-19T23:51:38.146Z,4.57
2018-08-19T23:54:05.612Z,4.73
2018-08-19T23:56:33.056Z,4.63
2018-08-19T23:59:01.024Z,4.83
